sensor_id;sensor_type;location;lat;lon;timestamp;pressure;altitude;pressure_sealevel;temperature;humidity
77793;BME280;66983;51.438;5.438;2023-01-31T00:01:26;102423.41;;;3.53;79.15
77793;BME280;66983;51.438;5.438;2023-01-31T00:03:57;102428.69;;;3.53;79.13
77793;BME280;66983;51.438;5.438;2023-01-31T00:06:26;102431.28;;;3.50;78.61
77793;BME280;66983;51.438;5.438;2023-01-31T00:08:53;102433.88;;;3.48;78.74
77793;BME280;66983;51.438;5.438;2023-01-31T00:11:24;102433.84;;;3.45;79.39
77793;BME280;66983;51.438;5.438;2023-01-31T00:13:51;102442.56;;;3.42;79.57
77793;BME280;66983;51.438;5.438;2023-01-31T00:16:18;102445.19;;;3.41;79.22
77793;BME280;66983;51.438;5.438;2023-01-31T00:18:44;102445.13;;;3.38;78.96
77793;BME280;66983;51.438;5.438;2023-01-31T00:21:16;102441.63;;;3.37;79.50
77793;BME280;66983;51.438;5.438;2023-01-31T00:23:43;102444.25;;;3.36;79.07
77793;BME280;66983;51.438;5.438;2023-01-31T00:26:14;102439.00;;;3.37;78.85
77793;BME280;66983;51.438;5.438;2023-01-31T00:28:42;102442.44;;;3.33;79.87
77793;BME280;66983;51.438;5.438;2023-01-31T00:31:09;102446.00;;;3.38;79.60
77793;BME280;66983;51.438;5.438;2023-01-31T00:33:36;102438.09;;;3.38;78.80
77793;BME280;66983;51.438;5.438;2023-01-31T00:36:10;102434.63;;;3.39;79.01
77793;BME280;66983;51.438;5.438;2023-01-31T00:38:36;102439.00;;;3.39;79.23
77793;BME280;66983;51.438;5.438;2023-01-31T00:41:03;102443.41;;;3.40;79.34
77793;BME280;66983;51.438;5.438;2023-01-31T00:43:30;102439.00;;;3.39;79.95
77793;BME280;66983;51.438;5.438;2023-01-31T00:45:57;102424.97;;;3.40;79.75
77793;BME280;66983;51.438;5.438;2023-01-31T00:48:23;102429.41;;;3.44;79.75
77793;BME280;66983;51.438;5.438;2023-01-31T00:50:49;102443.63;;;3.52;80.21
77793;BME280;66983;51.438;5.438;2023-01-31T00:53:15;102442.75;;;3.53;79.67
77793;BME280;66983;51.438;5.438;2023-01-31T00:55:43;102434.91;;;3.56;80.01
77793;BME280;66983;51.438;5.438;2023-01-31T00:58:08;102430.53;;;3.58;80.10
77793;BME280;66983;51.438;5.438;2023-01-31T01:00:34;102435.88;;;3.61;79.72
77793;BME280;66983;51.438;5.438;2023-01-31T01:03:00;102432.34;;;3.64;79.97
77793;BME280;66983;51.438;5.438;2023-01-31T01:05:27;102430.63;;;3.66;79.70
77793;BME280;66983;51.438;5.438;2023-01-31T01:07:53;102426.28;;;3.69;79.45
77793;BME280;66983;51.438;5.438;2023-01-31T01:10:18;102420.13;;;3.69;79.05
77793;BME280;66983;51.438;5.438;2023-01-31T01:12:44;102418.44;;;3.72;79.62
77793;BME280;66983;51.438;5.438;2023-01-31T01:15:13;102420.22;;;3.73;79.86
77793;BME280;66983;51.438;5.438;2023-01-31T01:17:39;102416.69;;;3.73;79.72
77793;BME280;66983;51.438;5.438;2023-01-31T01:20:05;102415.75;;;3.69;78.99
77793;BME280;66983;51.438;5.438;2023-01-31T01:22:32;102417.50;;;3.69;79.70
77793;BME280;66983;51.438;5.438;2023-01-31T01:24:58;102409.59;;;3.69;79.56
77793;BME280;66983;51.438;5.438;2023-01-31T01:27:23;102411.34;;;3.68;79.06
77793;BME280;66983;51.438;5.438;2023-01-31T01:29:49;102398.97;;;3.64;79.19
77793;BME280;66983;51.438;5.438;2023-01-31T01:32:14;102391.03;;;3.60;79.15
77793;BME280;66983;51.438;5.438;2023-01-31T01:34:40;102387.47;;;3.58;79.16
77793;BME280;66983;51.438;5.438;2023-01-31T01:37:07;102390.03;;;3.53;78.93
77793;BME280;66983;51.438;5.438;2023-01-31T01:39:51;102389.94;;;3.47;79.35
77793;BME280;66983;51.438;5.438;2023-01-31T01:42:21;102385.53;;;3.46;79.99
77793;BME280;66983;51.438;5.438;2023-01-31T01:44:59;102375.81;;;3.42;79.74
77793;BME280;66983;51.438;5.438;2023-01-31T01:52:43;102378.44;;;3.42;80.64
77793;BME280;66983;51.438;5.438;2023-01-31T01:57:46;102379.31;;;3.41;80.40
77793;BME280;66983;51.438;5.438;2023-01-31T02:00:20;102373.97;;;3.35;80.70
77793;BME280;66983;51.438;5.438;2023-01-31T02:02:49;102368.69;;;3.35;80.18
77793;BME280;66983;51.438;5.438;2023-01-31T02:05:22;102374.81;;;3.32;80.53
77793;BME280;66983;51.438;5.438;2023-01-31T02:07:49;102376.50;;;3.29;80.72
77793;BME280;66983;51.438;5.438;2023-01-31T02:10:22;102379.97;;;3.26;80.30
77793;BME280;66983;51.438;5.438;2023-01-31T02:12:49;102386.09;;;3.25;81.26
77793;BME280;66983;51.438;5.438;2023-01-31T02:15:16;102390.44;;;3.22;81.28
77793;BME280;66983;51.438;5.438;2023-01-31T02:17:42;102386.00;;;3.21;80.96
77793;BME280;66983;51.438;5.438;2023-01-31T02:23:36;102393.84;;;3.16;81.42
77793;BME280;66983;51.438;5.438;2023-01-31T02:26:33;102390.34;;;3.17;81.73
77793;BME280;66983;51.438;5.438;2023-01-31T02:37:47;102403.34;;;3.06;81.98
77793;BME280;66983;51.438;5.438;2023-01-31T02:40:35;102413.94;;;3.10;82.04
77793;BME280;66983;51.438;5.438;2023-01-31T02:43:19;102408.63;;;3.06;82.53
77793;BME280;66983;51.438;5.438;2023-01-31T02:46:12;102399.88;;;3.08;82.90
77793;BME280;66983;51.438;5.438;2023-01-31T02:51:26;102398.16;;;3.10;82.99
77793;BME280;66983;51.438;5.438;2023-01-31T02:54:12;102399.06;;;3.13;83.13
77793;BME280;66983;51.438;5.438;2023-01-31T02:56:43;102396.44;;;3.15;82.85
77793;BME280;66983;51.438;5.438;2023-01-31T02:59:16;102397.34;;;3.15;83.61
77793;BME280;66983;51.438;5.438;2023-01-31T03:01:54;102392.94;;;3.16;83.40
77793;BME280;66983;51.438;5.438;2023-01-31T03:04:21;102395.63;;;3.19;83.63
77793;BME280;66983;51.438;5.438;2023-01-31T03:06:49;102400.03;;;3.18;83.59
77793;BME280;66983;51.438;5.438;2023-01-31T03:09:41;102393.00;;;3.19;83.98
77793;BME280;66983;51.438;5.438;2023-01-31T03:12:37;102387.81;;;3.23;83.72
77793;BME280;66983;51.438;5.438;2023-01-31T03:18:23;102379.06;;;3.26;83.57
77793;BME280;66983;51.438;5.438;2023-01-31T03:21:16;102369.44;;;3.26;83.42
77793;BME280;66983;51.438;5.438;2023-01-31T03:23:48;102374.69;;;3.26;83.91
77793;BME280;66983;51.438;5.438;2023-01-31T03:26:17;102364.22;;;3.29;83.09
77793;BME280;66983;51.438;5.438;2023-01-31T03:28:46;102363.28;;;3.26;83.68
77793;BME280;66983;51.438;5.438;2023-01-31T03:31:25;102375.59;;;3.27;83.28
77793;BME280;66983;51.438;5.438;2023-01-31T03:34:03;102372.03;;;3.25;84.03
77793;BME280;66983;51.438;5.438;2023-01-31T03:39:43;102372.88;;;3.22;84.30
77793;BME280;66983;51.438;5.438;2023-01-31T03:45:33;102363.28;;;3.26;84.28
77793;BME280;66983;51.438;5.438;2023-01-31T03:48:03;102370.34;;;3.28;83.91
77793;BME280;66983;51.438;5.438;2023-01-31T03:50:40;102352.78;;;3.29;84.42
77793;BME280;66983;51.438;5.438;2023-01-31T03:53:26;102365.03;;;3.27;84.78
77793;BME280;66983;51.438;5.438;2023-01-31T03:58:43;102344.88;;;3.29;84.30
77793;BME280;66983;51.438;5.438;2023-01-31T04:01:14;102341.28;;;3.24;84.54
77793;BME280;66983;51.438;5.438;2023-01-31T04:03:46;102349.34;;;3.33;84.40
77793;BME280;66983;51.438;5.438;2023-01-31T04:06:13;102343.22;;;3.35;84.45
77793;BME280;66983;51.438;5.438;2023-01-31T04:08:39;102350.28;;;3.36;84.36
77793;BME280;66983;51.438;5.438;2023-01-31T04:11:12;102344.13;;;3.37;84.23
77793;BME280;66983;51.438;5.438;2023-01-31T04:13:40;102351.16;;;3.37;84.56
77793;BME280;66983;51.438;5.438;2023-01-31T04:16:06;102354.66;;;3.39;84.46
77793;BME280;66983;51.438;5.438;2023-01-31T04:18:32;102344.13;;;3.39;84.72
77793;BME280;66983;51.438;5.438;2023-01-31T04:20:57;102343.25;;;3.38;83.97
77793;BME280;66983;51.438;5.438;2023-01-31T04:23:23;102345.03;;;3.39;84.43
77793;BME280;66983;51.438;5.438;2023-01-31T04:25:52;102353.78;;;3.37;84.61
77793;BME280;66983;51.438;5.438;2023-01-31T04:28:19;102344.13;;;3.36;84.47
77793;BME280;66983;51.438;5.438;2023-01-31T04:30:45;102344.13;;;3.36;84.24
77793;BME280;66983;51.438;5.438;2023-01-31T04:33:11;102345.00;;;3.36;84.21
77793;BME280;66983;51.438;5.438;2023-01-31T04:35:39;102337.97;;;3.35;84.04
77793;BME280;66983;51.438;5.438;2023-01-31T04:38:04;102342.34;;;3.35;84.24
77793;BME280;66983;51.438;5.438;2023-01-31T04:40:30;102328.31;;;3.36;84.33
77793;BME280;66983;51.438;5.438;2023-01-31T04:42:56;102342.34;;;3.35;84.46
77793;BME280;66983;51.438;5.438;2023-01-31T04:45:21;102335.25;;;3.31;84.09
77793;BME280;66983;51.438;5.438;2023-01-31T04:47:47;102333.47;;;3.30;84.43
77793;BME280;66983;51.438;5.438;2023-01-31T04:50:12;102343.13;;;3.29;84.32
77793;BME280;66983;51.438;5.438;2023-01-31T04:52:38;102336.94;;;3.27;84.61
77793;BME280;66983;51.438;5.438;2023-01-31T04:55:03;102338.69;;;3.27;84.74
77793;BME280;66983;51.438;5.438;2023-01-31T04:57:29;102325.47;;;3.24;85.06
77793;BME280;66983;51.438;5.438;2023-01-31T04:59:55;102329.88;;;3.25;nan
77793;BME280;66983;51.438;5.438;2023-01-31T05:02:20;102325.44;;;3.22;84.44
77793;BME280;66983;51.438;5.438;2023-01-31T05:04:47;102319.28;;;3.22;84.32
77793;BME280;66983;51.438;5.438;2023-01-31T05:07:14;102311.41;;;3.22;84.28
77793;BME280;66983;51.438;5.438;2023-01-31T05:09:40;102295.56;;;3.20;84.25
77793;BME280;66983;51.438;5.438;2023-01-31T05:12:07;102300.88;;;3.23;84.99
77793;BME280;66983;51.438;5.438;2023-01-31T05:14:33;102293.91;;;3.27;84.55
77793;BME280;66983;51.438;5.438;2023-01-31T05:16:59;102279.91;;;3.29;84.44
77793;BME280;66983;51.438;5.438;2023-01-31T05:19:24;102290.47;;;3.32;84.69
77793;BME280;66983;51.438;5.438;2023-01-31T05:21:50;102284.38;;;3.35;84.02
77793;BME280;66983;51.438;5.438;2023-01-31T05:24:30;102289.63;;;3.33;84.55
77793;BME280;66983;51.438;5.438;2023-01-31T05:26:59;102280.88;;;3.36;84.08
77793;BME280;66983;51.438;5.438;2023-01-31T05:29:31;102272.97;;;3.39;84.16
77793;BME280;66983;51.438;5.438;2023-01-31T05:31:58;102278.28;;;3.42;83.73
77793;BME280;66983;51.438;5.438;2023-01-31T05:34:26;102275.72;;;3.45;83.95
77793;BME280;66983;51.438;5.438;2023-01-31T05:36:54;102286.25;;;3.45;83.91
77793;BME280;66983;51.438;5.438;2023-01-31T05:39:20;102275.75;;;3.48;83.75
77793;BME280;66983;51.438;5.438;2023-01-31T05:41:46;102269.63;;;3.49;83.04
77793;BME280;66983;51.438;5.438;2023-01-31T05:44:12;102281.94;;;3.52;83.21
77793;BME280;66983;51.438;5.438;2023-01-31T05:46:39;102271.41;;;3.52;83.22
77793;BME280;66983;51.438;5.438;2023-01-31T05:49:04;102258.25;;;3.53;82.96
77793;BME280;66983;51.438;5.438;2023-01-31T05:51:30;102268.75;;;3.50;82.88
77793;BME280;66983;51.438;5.438;2023-01-31T05:53:55;102272.31;;;3.54;82.35
77793;BME280;66983;51.438;5.438;2023-01-31T05:56:22;102268.81;;;3.55;82.94
77793;BME280;66983;51.438;5.438;2023-01-31T05:58:48;102267.06;;;3.55;82.28
77793;BME280;66983;51.438;5.438;2023-01-31T06:01:19;102260.06;;;3.57;82.18
77793;BME280;66983;51.438;5.438;2023-01-31T06:03:45;102262.72;;;3.59;82.68
77793;BME280;66983;51.438;5.438;2023-01-31T06:06:11;102254.78;;;3.57;81.94
77793;BME280;66983;51.438;5.438;2023-01-31T06:08:37;102254.78;;;3.57;82.51
77793;BME280;66983;51.438;5.438;2023-01-31T06:11:04;102261.88;;;3.60;82.30
77793;BME280;66983;51.438;5.438;2023-01-31T06:13:31;102267.16;;;3.61;82.30
77793;BME280;66983;51.438;5.438;2023-01-31T06:15:56;102265.44;;;3.63;82.48
77793;BME280;66983;51.438;5.438;2023-01-31T06:18:22;102268.94;;;3.65;82.30
77793;BME280;66983;51.438;5.438;2023-01-31T06:20:48;102267.19;;;3.67;82.07
77793;BME280;66983;51.438;5.438;2023-01-31T06:23:13;102274.25;;;3.68;82.04
77793;BME280;66983;51.438;5.438;2023-01-31T06:25:39;102258.44;;;3.70;82.10
77793;BME280;66983;51.438;5.438;2023-01-31T06:28:04;102262.88;;;3.72;81.74
77793;BME280;66983;51.438;5.438;2023-01-31T06:30:30;102248.78;;;3.70;82.12
77793;BME280;66983;51.438;5.438;2023-01-31T06:32:59;102276.97;;;3.74;81.33
77793;BME280;66983;51.438;5.438;2023-01-31T06:35:24;102266.41;;;3.74;81.20
77793;BME280;66983;51.438;5.438;2023-01-31T06:37:50;102260.25;;;3.74;82.10
77793;BME280;66983;51.438;5.438;2023-01-31T06:40:16;102269.91;;;3.72;82.28
77793;BME280;66983;51.438;5.438;2023-01-31T06:42:41;102256.78;;;3.77;82.02
77793;BME280;66983;51.438;5.438;2023-01-31T06:45:08;102255.03;;;3.79;81.59
77793;BME280;66983;51.438;5.438;2023-01-31T06:47:33;102263.88;;;3.81;82.10
77793;BME280;66983;51.438;5.438;2023-01-31T06:49:59;102257.72;;;3.82;82.00
77793;BME280;66983;51.438;5.438;2023-01-31T06:52:24;102263.91;;;3.84;81.63
77793;BME280;66983;51.438;5.438;2023-01-31T06:54:50;102251.59;;;3.84;82.06
77793;BME280;66983;51.438;5.438;2023-01-31T06:57:15;102256.00;;;3.85;82.01
77793;BME280;66983;51.438;5.438;2023-01-31T06:59:41;102248.13;;;3.87;81.89
77793;BME280;66983;51.438;5.438;2023-01-31T07:02:08;102238.47;;;3.90;81.57
77793;BME280;66983;51.438;5.438;2023-01-31T07:04:34;102241.97;;;3.91;82.03
77793;BME280;66983;51.438;5.438;2023-01-31T07:07:00;102245.53;;;3.94;81.35
77793;BME280;66983;51.438;5.438;2023-01-31T07:09:25;102242.91;;;3.96;81.91
77793;BME280;66983;51.438;5.438;2023-01-31T07:11:51;102243.81;;;3.98;81.93
77793;BME280;66983;51.438;5.438;2023-01-31T07:14:16;102241.22;;;4.01;81.63
77793;BME280;66983;51.438;5.438;2023-01-31T07:16:42;102244.75;;;4.03;81.20
77793;BME280;66983;51.438;5.438;2023-01-31T07:19:07;102245.69;;;4.06;81.89
77793;BME280;66983;51.438;5.438;2023-01-31T07:21:33;102240.44;;;4.09;80.71
77793;BME280;66983;51.438;5.438;2023-01-31T07:24:01;102249.25;;;4.12;81.52
77793;BME280;66983;51.438;5.438;2023-01-31T07:26:27;102245.75;;;4.13;80.77
77793;BME280;66983;51.438;5.438;2023-01-31T07:28:52;102244.03;;;4.15;81.28
77793;BME280;66983;51.438;5.438;2023-01-31T07:31:18;102244.03;;;4.18;81.48
77793;BME280;66983;51.438;5.438;2023-01-31T07:33:45;102237.00;;;4.20;81.25
77793;BME280;66983;51.438;5.438;2023-01-31T07:36:13;102230.00;;;4.22;80.60
77793;BME280;66983;51.438;5.438;2023-01-31T07:38:40;102241.47;;;4.25;80.53
77793;BME280;66983;51.438;5.438;2023-01-31T07:41:06;102235.31;;;4.26;80.06
77793;BME280;66983;51.438;5.438;2023-01-31T07:43:34;102222.16;;;4.29;80.06
77793;BME280;66983;51.438;5.438;2023-01-31T07:45:59;102225.69;;;4.31;80.83
77793;BME280;66983;51.438;5.438;2023-01-31T07:48:26;102217.78;;;4.31;80.74
77793;BME280;66983;51.438;5.438;2023-01-31T07:50:57;102218.72;;;4.36;79.90
77793;BME280;66983;51.438;5.438;2023-01-31T07:53:23;102212.56;;;4.39;80.98
77793;BME280;66983;51.438;5.438;2023-01-31T07:55:49;102220.50;;;4.43;80.66
77793;BME280;66983;51.438;5.438;2023-01-31T07:58:15;102214.41;;;4.49;80.14
77793;BME280;66983;51.438;5.438;2023-01-31T08:00:41;102211.78;;;4.51;80.03
77793;BME280;66983;51.438;5.438;2023-01-31T08:03:28;102210.91;;;4.53;79.13
77793;BME280;66983;51.438;5.438;2023-01-31T08:06:01;102204.78;;;4.54;79.28
77793;BME280;66983;51.438;5.438;2023-01-31T08:08:28;102186.31;;;4.56;79.02
77793;BME280;66983;51.438;5.438;2023-01-31T08:10:53;102192.47;;;4.58;79.96
77793;BME280;66983;51.438;5.438;2023-01-31T08:13:19;102189.84;;;4.59;79.78
77793;BME280;66983;51.438;5.438;2023-01-31T08:15:44;102183.72;;;4.62;80.12
77793;BME280;66983;51.438;5.438;2023-01-31T08:18:10;102186.38;;;4.66;79.99
77793;BME280;66983;51.438;5.438;2023-01-31T08:20:35;102176.69;;;4.68;80.12
77793;BME280;66983;51.438;5.438;2023-01-31T08:23:03;102192.56;;;4.73;79.86
77793;BME280;66983;51.438;5.438;2023-01-31T08:25:29;102183.81;;;4.77;79.76
77793;BME280;66983;51.438;5.438;2023-01-31T08:27:59;102182.94;;;4.78;79.13
77793;BME280;66983;51.438;5.438;2023-01-31T08:30:25;102190.91;;;4.84;79.25
77793;BME280;66983;51.438;5.438;2023-01-31T08:32:50;102184.75;;;4.88;79.28
77793;BME280;66983;51.438;5.438;2023-01-31T08:35:16;102194.47;;;4.92;78.94
77793;BME280;66983;51.438;5.438;2023-01-31T08:37:42;102183.03;;;4.93;79.65
77793;BME280;66983;51.438;5.438;2023-01-31T08:40:08;102164.53;;;4.96;79.61
77793;BME280;66983;51.438;5.438;2023-01-31T08:42:33;102174.25;;;5.00;78.93
77793;BME280;66983;51.438;5.438;2023-01-31T08:44:59;102171.63;;;5.05;79.31
77793;BME280;66983;51.438;5.438;2023-01-31T08:47:25;102165.47;;;5.07;78.81
77793;BME280;66983;51.438;5.438;2023-01-31T08:49:50;102160.22;;;5.10;79.84
77793;BME280;66983;51.438;5.438;2023-01-31T08:52:16;102155.84;;;5.16;79.28
77793;BME280;66983;51.438;5.438;2023-01-31T08:54:41;102155.88;;;5.19;78.40
77793;BME280;66983;51.438;5.438;2023-01-31T08:57:07;102154.97;;;5.21;79.01
77793;BME280;66983;51.438;5.438;2023-01-31T08:59:32;102155.88;;;5.25;79.75
77793;BME280;66983;51.438;5.438;2023-01-31T09:01:58;102161.16;;;5.28;79.78
77793;BME280;66983;51.438;5.438;2023-01-31T09:04:23;102153.25;;;5.31;79.75
77793;BME280;66983;51.438;5.438;2023-01-31T09:06:49;102146.22;;;5.36;79.07
77793;BME280;66983;51.438;5.438;2023-01-31T09:09:15;102136.56;;;5.39;79.89
77793;BME280;66983;51.438;5.438;2023-01-31T09:11:40;102139.19;;;5.41;79.48
77793;BME280;66983;51.438;5.438;2023-01-31T09:14:06;102138.34;;;5.45;79.29
77793;BME280;66983;51.438;5.438;2023-01-31T09:16:31;102135.66;;;5.48;79.61
77793;BME280;66983;51.438;5.438;2023-01-31T09:18:57;102128.63;;;5.53;79.31
77793;BME280;66983;51.438;5.438;2023-01-31T09:21:23;102134.81;;;5.57;78.66
77793;BME280;66983;51.438;5.438;2023-01-31T09:23:57;102143.66;;;5.60;78.43
77793;BME280;66983;51.438;5.438;2023-01-31T09:26:24;102141.91;;;5.62;79.19
77793;BME280;66983;51.438;5.438;2023-01-31T09:28:49;102137.50;;;5.69;78.30
77793;BME280;66983;51.438;5.438;2023-01-31T09:31:17;102126.91;;;5.75;78.44
77793;BME280;66983;51.438;5.438;2023-01-31T09:33:45;102113.69;;;5.79;78.84
77793;BME280;66983;51.438;5.438;2023-01-31T09:36:19;102109.28;;;5.83;78.48
77793;BME280;66983;51.438;5.438;2023-01-31T09:38:46;102109.31;;;5.85;77.85
77793;BME280;66983;51.438;5.438;2023-01-31T09:41:36;102107.53;;;5.85;78.34
77793;BME280;66983;51.438;5.438;2023-01-31T09:46:43;102111.97;;;5.88;78.82
77793;BME280;66983;51.438;5.438;2023-01-31T09:49:23;102108.47;;;5.92;78.31
77793;BME280;66983;51.438;5.438;2023-01-31T09:51:55;102110.25;;;5.94;78.28
77793;BME280;66983;51.438;5.438;2023-01-31T09:54:31;102118.16;;;6.03;78.33
77793;BME280;66983;51.438;5.438;2023-01-31T09:57:11;102119.06;;;6.13;78.09
77793;BME280;66983;51.438;5.438;2023-01-31T10:05:27;102110.22;;;6.37;77.97
77793;BME280;66983;51.438;5.438;2023-01-31T10:10:36;102104.03;;;6.38;77.63
77793;BME280;66983;51.438;5.438;2023-01-31T10:13:11;102106.69;;;6.39;78.38
77793;BME280;66983;51.438;5.438;2023-01-31T10:15:50;102110.22;;;6.41;77.26
77793;BME280;66983;51.438;5.438;2023-01-31T10:18:28;102113.75;;;6.40;77.98
77793;BME280;66983;51.438;5.438;2023-01-31T10:21:16;102112.84;;;6.41;77.89
77793;BME280;66983;51.438;5.438;2023-01-31T10:23:47;102102.25;;;6.47;77.52
77793;BME280;66983;51.438;5.438;2023-01-31T10:26:21;102095.16;;;6.54;77.74
77793;BME280;66983;51.438;5.438;2023-01-31T10:28:49;102082.78;;;6.58;78.04
77793;BME280;66983;51.438;5.438;2023-01-31T10:31:40;102073.06;;;6.63;77.74
77793;BME280;66983;51.438;5.438;2023-01-31T10:34:24;102081.91;;;6.65;78.39
77793;BME280;66983;51.438;5.438;2023-01-31T10:37:01;102085.44;;;6.64;77.80
77793;BME280;66983;51.438;5.438;2023-01-31T10:40:36;102089.84;;;6.63;78.29
77793;BME280;66983;51.438;5.438;2023-01-31T10:42:33;102103.09;;;6.60;77.99
77793;BME280;66983;51.438;5.438;2023-01-31T10:47:37;102104.88;;;6.60;78.20
77793;BME280;66983;51.438;5.438;2023-01-31T10:50:20;102098.69;;;6.61;78.68
77793;BME280;66983;51.438;5.438;2023-01-31T10:52:58;102096.91;;;6.64;78.55
77793;BME280;66983;51.438;5.438;2023-01-31T10:55:51;102074.81;;;6.70;78.48
77793;BME280;66983;51.438;5.438;2023-01-31T10:58:22;102078.34;;;6.75;78.57
77793;BME280;66983;51.438;5.438;2023-01-31T11:00:48;102059.78;;;6.76;78.45
77793;BME280;66983;51.438;5.438;2023-01-31T11:03:15;102078.31;;;6.81;78.17
77793;BME280;66983;51.438;5.438;2023-01-31T11:05:50;102068.59;;;6.81;78.33
77793;BME280;66983;51.438;5.438;2023-01-31T11:08:40;102076.53;;;6.86;78.41
77793;BME280;66983;51.438;5.438;2023-01-31T11:11:09;102064.16;;;6.90;78.30
77793;BME280;66983;51.438;5.438;2023-01-31T11:13:37;102064.13;;;6.94;78.52
77793;BME280;66983;51.438;5.438;2023-01-31T11:16:07;102078.25;;;6.96;78.38
77793;BME280;66983;51.438;5.438;2023-01-31T11:18:44;102063.25;;;6.97;78.05
77793;BME280;66983;51.438;5.438;2023-01-31T11:21:22;102047.34;;;7.00;78.16
77793;BME280;66983;51.438;5.438;2023-01-31T11:23:50;102049.94;;;7.04;77.89
77793;BME280;66983;51.438;5.438;2023-01-31T11:26:33;102055.22;;;7.03;78.17
77793;BME280;66983;51.438;5.438;2023-01-31T11:29:01;102052.56;;;7.06;78.29
77793;BME280;66983;51.438;5.438;2023-01-31T11:31:39;102043.75;;;7.05;77.99
77793;BME280;66983;51.438;5.438;2023-01-31T11:36:46;102032.25;;;7.06;78.00
77793;BME280;66983;51.438;5.438;2023-01-31T11:39:33;102021.63;;;7.11;78.24
77793;BME280;66983;51.438;5.438;2023-01-31T11:42:16;102028.69;;;7.13;77.27
77793;BME280;66983;51.438;5.438;2023-01-31T11:45:01;102037.53;;;7.09;77.74
77793;BME280;66983;51.438;5.438;2023-01-31T11:47:42;102034.88;;;7.11;77.96
77793;BME280;66983;51.438;5.438;2023-01-31T11:52:45;102035.75;;;7.13;77.54
77793;BME280;66983;51.438;5.438;2023-01-31T11:55:16;102036.63;;;7.18;77.81
77793;BME280;66983;51.438;5.438;2023-01-31T11:57:42;102022.47;;;7.19;77.40
77793;BME280;66983;51.438;5.438;2023-01-31T12:00:21;102026.00;;;7.23;77.58
77793;BME280;66983;51.438;5.438;2023-01-31T12:03:01;102018.06;;;7.17;77.52
77793;BME280;66983;51.438;5.438;2023-01-31T12:06:00;102026.91;;;7.15;77.74
77793;BME280;66983;51.438;5.438;2023-01-31T12:10:55;102025.13;;;7.16;78.44
77793;BME280;66983;51.438;5.438;2023-01-31T12:13:22;102022.50;;;7.14;79.04
77793;BME280;66983;51.438;5.438;2023-01-31T12:15:56;102024.25;;;7.14;79.71
77793;BME280;66983;51.438;5.438;2023-01-31T12:21:16;102026.97;;;7.03;81.19
77793;BME280;66983;51.438;5.438;2023-01-31T12:26:48;102026.13;;;6.97;81.66
77793;BME280;66983;51.438;5.438;2023-01-31T12:29:55;102021.75;;;6.91;81.86
77793;BME280;66983;51.438;5.438;2023-01-31T12:38:41;102025.31;;;6.81;84.14
77793;BME280;66983;51.438;5.438;2023-01-31T12:41:31;102028.84;;;6.77;84.19
77793;BME280;66983;51.438;5.438;2023-01-31T12:58:40;102031.56;;;6.65;86.71
77793;BME280;66983;51.438;5.438;2023-01-31T13:01:20;102018.31;;;6.65;86.54
77793;BME280;66983;51.438;5.438;2023-01-31T13:06:36;102018.31;;;6.68;87.38
77793;BME280;66983;51.438;5.438;2023-01-31T13:09:20;102010.38;;;6.71;87.41
77793;BME280;66983;51.438;5.438;2023-01-31T13:11:57;102020.06;;;6.72;86.92
77793;BME280;66983;51.438;5.438;2023-01-31T13:14:31;102001.53;;;6.72;87.41
77793;BME280;66983;51.438;5.438;2023-01-31T13:17:02;102003.28;;;6.73;87.84
77793;BME280;66983;51.438;5.438;2023-01-31T13:19:48;101995.31;;;6.76;87.50
77793;BME280;66983;51.438;5.438;2023-01-31T13:22:39;101997.06;;;6.77;87.60
77793;BME280;66983;51.438;5.438;2023-01-31T13:28:00;101991.75;;;6.78;87.24
77793;BME280;66983;51.438;5.438;2023-01-31T13:30:40;101993.50;;;6.81;87.54
77793;BME280;66983;51.438;5.438;2023-01-31T13:33:46;102007.63;;;6.83;87.71
77793;BME280;66983;51.438;5.438;2023-01-31T13:36:49;102005.88;;;6.82;87.62
77793;BME280;66983;51.438;5.438;2023-01-31T13:39:26;102001.44;;;6.84;87.12
77793;BME280;66983;51.438;5.438;2023-01-31T13:41:53;101997.91;;;6.84;87.72
77793;BME280;66983;51.438;5.438;2023-01-31T13:44:18;102011.16;;;6.87;87.25
77793;BME280;66983;51.438;5.438;2023-01-31T13:47:02;102005.84;;;6.87;87.45
77793;BME280;66983;51.438;5.438;2023-01-31T13:49:47;101997.91;;;6.85;87.46
77793;BME280;66983;51.438;5.438;2023-01-31T13:52:43;101991.72;;;6.89;87.53
77793;BME280;66983;51.438;5.438;2023-01-31T13:55:37;101993.47;;;6.93;87.47
77793;BME280;66983;51.438;5.438;2023-01-31T13:58:12;101984.63;;;6.94;87.67
77793;BME280;66983;51.438;5.438;2023-01-31T14:00:46;101980.19;;;6.98;87.71
77793;BME280;66983;51.438;5.438;2023-01-31T14:03:17;101983.72;;;7.01;87.52
77793;BME280;66983;51.438;5.438;2023-01-31T14:13:43;101988.00;;;7.18;87.59
77793;BME280;66983;51.438;5.438;2023-01-31T14:16:32;101995.06;;;7.22;87.72
77793;BME280;66983;51.438;5.438;2023-01-31T14:18:58;101985.34;;;7.24;87.56
77793;BME280;66983;51.438;5.438;2023-01-31T14:24:01;101985.25;;;7.30;87.87
77793;BME280;66983;51.438;5.438;2023-01-31T14:28:57;101986.13;;;7.35;87.12
77793;BME280;66983;51.438;5.438;2023-01-31T14:31:25;102004.66;;;7.39;87.44
77793;BME280;66983;51.438;5.438;2023-01-31T14:33:53;102007.28;;;7.44;87.10
77793;BME280;66983;51.438;5.438;2023-01-31T14:44:28;102019.53;;;7.57;87.04
77793;BME280;66983;51.438;5.438;2023-01-31T14:47:11;102024.81;;;7.60;86.52
77793;BME280;66983;51.438;5.438;2023-01-31T14:52:53;102029.25;;;7.58;85.93
77793;BME280;66983;51.438;5.438;2023-01-31T14:55:31;102044.25;;;7.64;85.86
77793;BME280;66983;51.438;5.438;2023-01-31T14:58:04;102052.22;;;7.65;86.55
77793;BME280;66983;51.438;5.438;2023-01-31T15:00:35;102038.94;;;7.67;86.26
77793;BME280;66983;51.438;5.438;2023-01-31T15:03:22;102048.66;;;7.69;85.79
77793;BME280;66983;51.438;5.438;2023-01-31T15:05:53;102042.44;;;7.70;86.35
77793;BME280;66983;51.438;5.438;2023-01-31T15:11:06;102043.31;;;7.71;86.24
77793;BME280;66983;51.438;5.438;2023-01-31T15:18:46;102065.41;;;7.76;86.01
77793;BME280;66983;51.438;5.438;2023-01-31T15:21:21;102053.03;;;7.76;85.47